Terminal Aerodrome Forecast
Issued by NWS Wilmington, OH

Current Version | Previous Version | Graphics & Text | Print | Product List | Glossary On
Versions: 1 2 3 4 5 6 7 8 9 10 11 12 13 14 15 16 17 18 19 20 21 22 23 24 25 26 27 28 29 30
000
FTUS41 KILN 031133
TAFCVG
TAF
KCVG 031133Z 0312/0418 04010G20KT P6SM VCTS BKN050CB
     FM031300 23012KT P6SM BKN040
     FM031900 25012G20KT P6SM VCTS BKN040CB
     FM032300 29012KT P6SM BKN050
     FM040100 32008KT P6SM SCT050
     FM041000 VRB03KT P6SM SKC
     FM041500 29005KT P6SM FEW040=

USA.gov is the U.S. government's official web portal to all federal, state and local government web resources and services.